createdAt,value
2018-11-23T00:03:40.394Z,51.57
2018-11-23T00:06:09.676Z,51.33
2018-11-23T00:08:53.708Z,54.50
2018-11-23T00:11:23.097Z,50.80
2018-11-23T00:13:53.214Z,51.60
2018-11-23T00:16:22.393Z,55.63
2018-11-23T00:18:52.303Z,55.43
2018-11-23T00:21:21.674Z,53.67
2018-11-23T00:23:50.838Z,50.77
2018-11-23T00:26:21.012Z,54.37
2018-11-23T00:28:50.316Z,56.03
2018-11-23T00:31:19.467Z,54.77
2018-11-23T00:33:48.651Z,51.73
2018-11-23T00:36:32.163Z,52.93
2018-11-23T00:39:03.699Z,53.50
2018-11-23T00:41:32.859Z,53.03
2018-11-23T00:44:02.094Z,52.63
2018-11-23T00:46:31.350Z,51.27
2018-11-23T00:49:00.544Z,50.33
2018-11-23T00:51:30.651Z,54.37
2018-11-23T00:53:59.922Z,52.80
2018-11-23T00:56:29.119Z,51.77
2018-11-23T00:58:58.319Z,64.47
2018-11-23T01:01:28.663Z,55.53
2018-11-23T01:03:59.665Z,49.53
2018-11-23T01:06:28.832Z,49.87
2018-11-23T01:08:58.232Z,53.93
2018-11-23T01:11:27.438Z,54.00
2018-11-23T01:13:56.635Z,51.90
2018-11-23T01:16:26.787Z,52.60
2018-11-23T01:18:56.235Z,51.43
2018-11-23T01:21:25.402Z,51.27
2018-11-23T01:23:55.849Z,49.20
2018-11-23T01:26:25.730Z,54.60
2018-11-23T01:28:56.116Z,48.73
2018-11-23T01:31:25.351Z,56.10
2018-11-23T01:33:54.527Z,56.07
2018-11-23T01:36:23.932Z,49.70
2018-11-23T01:38:54.055Z,54.10
2018-11-23T01:41:23.361Z,50.53
2018-11-23T01:43:52.533Z,53.93
2018-11-23T01:46:21.712Z,52.80
2018-11-23T01:48:50.943Z,51.73
2018-11-23T01:51:22.286Z,58.27
2018-11-23T01:53:51.458Z,57.00
2018-11-23T01:56:20.638Z,54.93
2018-11-23T01:58:50.380Z,53.20
2018-11-23T02:01:19.571Z,54.97
2018-11-23T02:03:49.776Z,51.43
2018-11-23T02:06:18.974Z,54.57
2018-11-23T02:08:48.405Z,55.63
2018-11-23T02:11:17.598Z,56.27
2018-11-23T02:13:46.919Z,53.90
2018-11-23T02:16:17.522Z,54.37
2018-11-23T02:18:46.810Z,53.93
2018-11-23T02:21:17.431Z,58.03
2018-11-23T02:23:46.613Z,50.97
2018-11-23T02:26:15.769Z,51.90
2018-11-23T02:28:45.950Z,55.67
2018-11-23T02:31:15.129Z,59.17
2018-11-23T02:33:44.533Z,55.70
2018-11-23T02:36:13.746Z,58.03
2018-11-23T02:38:42.932Z,55.00
2018-11-23T02:41:13.604Z,56.73
2018-11-23T02:43:42.882Z,56.10
2018-11-23T02:46:12.138Z,59.40
2018-11-23T02:48:41.311Z,57.50
2018-11-23T02:51:10.653Z,53.03
2018-11-23T02:53:40.826Z,56.67
2018-11-23T02:56:09.997Z,55.33
2018-11-23T02:58:40.201Z,51.83
2018-11-23T03:01:09.472Z,58.53
2018-11-23T03:03:38.679Z,56.50
2018-11-23T03:06:09.819Z,58.73
2018-11-23T03:08:39.024Z,56.43
2018-11-23T03:11:08.191Z,53.83
2018-11-23T03:13:37.698Z,54.97
2018-11-23T03:16:06.872Z,61.67
2018-11-23T03:18:36.889Z,56.50
2018-11-23T03:21:06.202Z,53.37
2018-11-23T03:23:35.953Z,55.63
2018-11-23T03:26:05.204Z,57.40
2018-11-23T03:28:34.369Z,58.70
2018-11-23T03:31:12.039Z,56.43
2018-11-23T03:33:33.778Z,60.00
2018-11-23T03:36:03.622Z,54.63
2018-11-23T03:38:32.791Z,55.87
2018-11-23T03:41:02.099Z,62.67
2018-11-23T03:43:33.906Z,55.53
2018-11-23T03:46:03.100Z,56.93
2018-11-23T03:48:32.401Z,59.33
2018-11-23T03:51:01.598Z,56.83
2018-11-23T03:53:30.829Z,57.50
2018-11-23T03:56:01.165Z,60.20
2018-11-23T03:58:30.534Z,57.77
2018-11-23T04:00:59.667Z,54.97
2018-11-23T04:03:28.843Z,58.93
2018-11-23T04:05:58.034Z,58.20
2018-11-23T04:08:28.675Z,60.43
2018-11-23T04:10:57.849Z,60.60
2018-11-23T04:13:28.043Z,59.57
2018-11-23T04:15:57.811Z,58.10
2018-11-23T04:18:27.408Z,54.40
2018-11-23T04:21:00.088Z,57.37
2018-11-23T04:23:30.248Z,59.23
2018-11-23T04:26:01.098Z,62.00
2018-11-23T04:28:31.290Z,61.20
2018-11-23T04:31:00.478Z,56.67
2018-11-23T04:33:31.115Z,60.27
2018-11-23T04:36:00.330Z,58.47
2018-11-23T04:38:29.535Z,62.43
2018-11-23T04:40:59.783Z,58.20
2018-11-23T04:43:28.956Z,61.60
2018-11-23T04:45:59.183Z,61.80
2018-11-23T04:48:28.482Z,63.60
2018-11-23T04:50:57.658Z,59.37
2018-11-23T04:53:27.699Z,59.53
2018-11-23T04:55:56.922Z,59.13
2018-11-23T04:58:26.164Z,57.67
2018-11-23T05:00:55.369Z,62.20
2018-11-23T05:03:24.602Z,59.27
2018-11-23T05:05:55.209Z,60.20
2018-11-23T05:08:24.414Z,60.63
2018-11-23T05:10:53.823Z,62.33
2018-11-23T05:13:23.058Z,59.90
2018-11-23T05:15:52.237Z,59.87
2018-11-23T05:18:22.230Z,60.70
2018-11-23T05:20:51.390Z,58.20
2018-11-23T05:23:20.628Z,59.30
2018-11-23T05:25:49.893Z,61.67
2018-11-23T05:28:19.757Z,66.57
2018-11-23T05:30:49.963Z,59.87
2018-11-23T05:33:19.239Z,58.83
2018-11-23T05:35:48.462Z,63.07
2018-11-23T05:38:17.621Z,62.20
2018-11-23T05:40:48.192Z,59.30
2018-11-23T05:43:18.586Z,61.53
2018-11-23T05:45:47.831Z,65.43
2018-11-23T05:48:17.090Z,65.67
2018-11-23T05:50:46.277Z,57.97
2018-11-23T05:53:15.559Z,73.93
2018-11-23T05:55:46.211Z,66.90
2018-11-23T05:58:15.393Z,60.97
2018-11-23T06:00:44.695Z,62.90
2018-11-23T06:03:13.930Z,60.40
2018-11-23T06:05:43.137Z,61.23
2018-11-23T06:08:14.142Z,60.90
2018-11-23T06:10:43.437Z,67.07
2018-11-23T06:13:12.602Z,60.87
2018-11-23T06:15:44.643Z,62.07
2018-11-23T06:18:12.302Z,64.17
2018-11-23T06:20:43.010Z,59.30
2018-11-23T06:23:12.218Z,66.77
2018-11-23T06:25:44.574Z,63.23
2018-11-23T06:28:13.776Z,59.60
2018-11-23T06:30:43.655Z,63.10
2018-11-23T06:33:27.843Z,65.97
2018-11-23T06:35:57.014Z,59.63
2018-11-23T06:38:26.236Z,61.07
2018-11-23T06:40:56.597Z,65.23
2018-11-23T06:43:25.827Z,60.10
2018-11-23T06:45:56.279Z,62.00
2018-11-23T06:48:25.554Z,62.43
2018-11-23T06:50:55.175Z,59.20
2018-11-23T06:53:24.873Z,62.97
2018-11-23T06:55:54.334Z,66.37
2018-11-23T06:58:24.038Z,66.20
2018-11-23T07:00:53.297Z,62.37
2018-11-23T07:03:22.512Z,66.03
2018-11-23T07:05:52.863Z,63.83
2018-11-23T07:08:22.586Z,61.30
2018-11-23T07:10:53.118Z,60.57
2018-11-23T07:13:22.311Z,64.90
2018-11-23T07:15:52.046Z,64.77
2018-11-23T07:18:21.695Z,60.03
2018-11-23T07:20:50.891Z,66.00
2018-11-23T07:23:20.085Z,60.73
2018-11-23T07:25:49.303Z,64.27
2018-11-23T07:28:20.049Z,64.23
2018-11-23T07:30:49.527Z,64.57
2018-11-23T07:33:18.710Z,63.57
2018-11-23T07:35:47.927Z,64.40
2018-11-23T07:38:17.080Z,63.17
2018-11-23T07:40:58.322Z,57.10
2018-11-23T07:43:27.542Z,64.50
2018-11-23T07:45:56.741Z,66.40
2018-11-23T07:48:25.987Z,63.97
2018-11-23T07:50:57.590Z,63.37
2018-11-23T07:53:27.225Z,66.97
2018-11-23T07:55:56.426Z,64.03
2018-11-23T07:58:25.607Z,59.63
2018-11-23T08:00:55.455Z,62.50
2018-11-23T08:03:25.108Z,61.40
2018-11-23T08:05:54.735Z,62.73
2018-11-23T08:08:24.006Z,61.87
2018-11-23T08:10:52.285Z,66.40
2018-11-23T08:13:21.735Z,74.90
2018-11-23T08:15:52.042Z,65.53
2018-11-23T08:18:21.644Z,60.60
2018-11-23T08:20:50.823Z,65.33
2018-11-23T08:23:20.595Z,65.07
2018-11-23T08:25:49.757Z,61.97
2018-11-23T08:28:19.379Z,59.23
2018-11-23T08:30:49.128Z,61.13
2018-11-23T08:33:19.590Z,65.70
2018-11-23T08:35:48.806Z,62.93
2018-11-23T08:38:18.130Z,61.57
2018-11-23T08:40:47.969Z,68.03
2018-11-23T08:43:17.650Z,147.20
2018-11-23T08:45:46.886Z,105.87
2018-11-23T08:48:16.119Z,113.07
2018-11-23T08:50:45.297Z,71.77
2018-11-23T08:53:15.406Z,60.30
2018-11-23T08:55:45.269Z,66.57
2018-11-23T08:58:14.456Z,67.87
2018-11-23T09:00:45.671Z,63.70
2018-11-23T09:03:16.169Z,64.10
2018-11-23T09:05:45.379Z,60.80
2018-11-23T09:08:15.039Z,55.53
2018-11-23T09:10:45.599Z,62.37
2018-11-23T09:13:14.847Z,62.50
2018-11-23T09:15:45.210Z,58.73
2018-11-23T09:18:14.426Z,53.97
2018-11-23T09:20:44.137Z,62.20
2018-11-23T09:23:14.533Z,57.83
2018-11-23T09:25:43.729Z,56.10
2018-11-23T09:28:13.367Z,60.27
2018-11-23T09:30:42.648Z,62.27
2018-11-23T09:33:12.395Z,68.20
2018-11-23T09:35:43.415Z,56.50
2018-11-23T09:38:12.612Z,57.73
2018-11-23T09:40:42.311Z,69.73
2018-11-23T09:43:11.632Z,62.37
2018-11-23T09:45:41.351Z,55.33
2018-11-23T09:48:10.541Z,55.00
2018-11-23T09:50:40.086Z,61.90
2018-11-23T09:53:10.279Z,53.47
2018-11-23T09:55:39.513Z,54.70
2018-11-23T09:58:10.787Z,64.60
2018-11-23T10:00:40.003Z,114.73
2018-11-23T10:03:09.528Z,70.00
2018-11-23T10:05:38.709Z,74.47
2018-11-23T10:08:08.749Z,92.20
2018-11-23T10:10:39.821Z,53.97
2018-11-23T10:13:09.008Z,66.70
2018-11-23T10:15:38.663Z,57.23
2018-11-23T10:18:08.469Z,49.90
2018-11-23T10:20:38.239Z,76.43
2018-11-23T10:23:07.433Z,52.43
2018-11-23T10:25:37.088Z,53.87
2018-11-23T10:28:07.296Z,52.37
2018-11-23T10:30:37.115Z,55.43
2018-11-23T10:33:07.738Z,53.20
2018-11-23T10:35:36.985Z,52.50
2018-11-23T10:38:09.274Z,53.37
2018-11-23T10:40:40.442Z,57.67
2018-11-23T10:43:10.275Z,56.13
2018-11-23T10:45:39.586Z,46.73
2018-11-23T10:48:10.288Z,48.67
2018-11-23T10:50:41.210Z,49.93
2018-11-23T10:53:10.437Z,46.60
2018-11-23T10:55:39.650Z,49.07
2018-11-23T10:58:09.475Z,47.40
2018-11-23T11:00:44.315Z,47.13
2018-11-23T11:03:34.184Z,47.07
2018-11-23T11:06:12.207Z,49.77
2018-11-23T11:08:42.840Z,48.10
2018-11-23T11:11:13.852Z,45.87
2018-11-23T11:13:41.957Z,48.97
2018-11-23T11:16:11.258Z,49.73
2018-11-23T11:18:40.485Z,48.27
2018-11-23T11:21:10.211Z,47.43
2018-11-23T11:23:39.912Z,47.00
2018-11-23T11:26:09.154Z,47.40
2018-11-23T11:28:38.338Z,51.40
2018-11-23T11:31:07.685Z,53.93
2018-11-23T11:33:38.250Z,52.00
2018-11-23T11:36:08.178Z,47.87
2018-11-23T11:38:37.807Z,50.23
2018-11-23T11:41:07.039Z,46.33
2018-11-23T11:43:37.758Z,49.17
2018-11-23T11:46:07.726Z,51.70
2018-11-23T11:48:37.444Z,49.17
2018-11-23T11:51:07.607Z,57.13
2018-11-23T11:53:36.955Z,46.23
2018-11-23T11:56:06.574Z,50.47
2018-11-23T11:58:36.820Z,51.30
2018-11-23T12:01:06.804Z,46.07
2018-11-23T12:03:36.059Z,48.07
2018-11-23T12:06:06.488Z,46.03
2018-11-23T12:08:36.187Z,45.80
2018-11-23T12:11:06.227Z,45.43
2018-11-23T12:13:36.243Z,44.23
2018-11-23T12:16:05.591Z,44.10
2018-11-23T12:18:34.742Z,42.60
2018-11-23T12:21:06.363Z,41.87
2018-11-23T12:23:35.593Z,44.43
2018-11-23T12:26:05.362Z,40.77
2018-11-23T12:28:34.565Z,43.43
2018-11-23T12:31:03.753Z,42.57
2018-11-23T12:33:33.365Z,41.50
2018-11-23T12:36:02.565Z,39.47
2018-11-23T12:38:32.312Z,40.27
2018-11-23T12:41:02.802Z,43.03
2018-11-23T12:43:32.083Z,39.13
2018-11-23T12:46:01.817Z,41.77
2018-11-23T12:48:30.998Z,41.27
2018-11-23T12:51:00.690Z,44.10
2018-11-23T12:53:29.961Z,42.90
2018-11-23T12:55:59.164Z,44.97
2018-11-23T12:58:30.329Z,41.60
2018-11-23T13:00:59.510Z,41.93
2018-11-23T13:03:29.224Z,40.43
2018-11-23T13:05:58.394Z,46.53
2018-11-23T13:08:27.580Z,44.73
2018-11-23T13:10:57.369Z,42.30
2018-11-23T13:13:26.656Z,45.00
2018-11-23T13:15:56.242Z,40.27
2018-11-23T13:18:25.430Z,45.73
2018-11-23T13:20:55.857Z,43.60
2018-11-23T13:23:25.959Z,41.93
2018-11-23T13:25:55.158Z,44.90
2018-11-23T13:28:24.828Z,48.70
2018-11-23T13:30:54.025Z,41.83
2018-11-23T13:33:23.301Z,40.23
2018-11-23T13:35:52.975Z,39.97
2018-11-23T13:38:22.178Z,38.17
2018-11-23T13:40:51.844Z,43.73
2018-11-23T13:43:22.560Z,42.67
2018-11-23T13:45:51.732Z,41.77
2018-11-23T13:48:21.435Z,45.00
2018-11-23T13:50:50.654Z,39.10
2018-11-23T13:53:20.290Z,35.23
2018-11-23T13:55:49.532Z,39.63
2018-11-23T13:58:20.039Z,38.37
2018-11-23T14:00:50.915Z,41.03
2018-11-23T14:03:20.190Z,35.63
2018-11-23T14:05:49.906Z,39.13
2018-11-23T14:08:19.264Z,35.13
2018-11-23T14:10:48.440Z,40.43
2018-11-23T14:13:18.288Z,43.17
2018-11-23T14:15:47.504Z,37.77
2018-11-23T14:18:17.268Z,43.67
2018-11-23T14:20:46.881Z,38.03
2018-11-23T14:23:16.122Z,40.43
2018-11-23T14:25:46.348Z,40.57
2018-11-23T14:28:15.594Z,39.37
2018-11-23T14:30:45.338Z,40.27
2018-11-23T14:33:14.604Z,40.43
2018-11-23T14:35:43.877Z,39.37
2018-11-23T14:38:13.515Z,41.53
2018-11-23T14:40:42.746Z,44.90
2018-11-23T14:43:12.525Z,40.97
2018-11-23T14:45:43.290Z,40.87
2018-11-23T14:48:12.530Z,41.80
2018-11-23T14:50:48.049Z,41.03
2018-11-23T14:53:17.743Z,44.17
2018-11-23T14:55:46.959Z,41.60
2018-11-23T14:58:17.526Z,43.13
2018-11-23T15:00:48.117Z,36.93
2018-11-23T15:03:17.302Z,40.07
2018-11-23T15:05:47.367Z,44.97
2018-11-23T15:08:16.544Z,43.07
2018-11-23T15:10:45.807Z,42.23
2018-11-23T15:13:15.781Z,44.60
2018-11-23T15:15:45.141Z,42.17
2018-11-23T15:18:14.942Z,42.00
2018-11-23T15:20:46.293Z,39.10
2018-11-23T15:23:18.872Z,43.83
2018-11-23T15:25:48.439Z,43.90
2018-11-23T15:28:18.521Z,41.33
2018-11-23T15:30:47.699Z,50.93
2018-11-23T15:33:19.028Z,41.87
2018-11-23T15:35:48.424Z,40.63
2018-11-23T15:38:21.757Z,39.13
2018-11-23T15:40:50.951Z,39.73
2018-11-23T15:43:21.457Z,40.43
2018-11-23T15:45:51.165Z,41.97
2018-11-23T15:48:20.763Z,43.00
2018-11-23T15:50:49.996Z,41.70
2018-11-23T15:53:20.327Z,46.37
2018-11-23T15:55:51.576Z,39.27
2018-11-23T15:58:20.766Z,39.73
2018-11-23T16:00:50.130Z,42.27
2018-11-23T16:03:19.330Z,34.90
2018-11-23T16:05:48.517Z,35.67
2018-11-23T16:08:20.373Z,40.03
2018-11-23T16:10:49.973Z,37.93
2018-11-23T16:13:19.189Z,42.67
2018-11-23T16:15:48.401Z,38.67
2018-11-23T16:18:19.569Z,36.60
2018-11-23T16:20:49.609Z,37.23
2018-11-23T16:23:20.488Z,42.70
2018-11-23T16:25:51.458Z,39.50
2018-11-23T16:28:21.130Z,35.87
2018-11-23T16:30:51.544Z,38.13
2018-11-23T16:33:22.169Z,38.47
2018-11-23T16:35:51.465Z,39.33
2018-11-23T16:38:23.738Z,41.57
2018-11-23T16:40:55.327Z,38.43
2018-11-23T16:43:25.875Z,37.43
2018-11-23T16:45:55.468Z,35.80
2018-11-23T16:48:26.275Z,41.23
2018-11-23T16:50:56.042Z,36.73
2018-11-23T16:53:25.250Z,40.47
2018-11-23T16:55:54.600Z,35.87
2018-11-23T16:58:23.998Z,39.73
2018-11-23T17:00:54.720Z,43.10
2018-11-23T17:03:24.539Z,37.17
2018-11-23T17:05:55.239Z,39.70
2018-11-23T17:08:24.594Z,36.70
2018-11-23T17:10:54.337Z,38.00
2018-11-23T17:13:23.682Z,33.63
2018-11-23T17:15:53.476Z,41.00
2018-11-23T17:18:23.594Z,35.33
2018-11-23T17:20:52.856Z,35.30
2018-11-23T17:23:22.945Z,39.83
2018-11-23T17:25:52.278Z,38.50
2018-11-23T17:28:21.896Z,36.33
2018-11-23T17:30:51.291Z,42.10
2018-11-23T17:33:20.667Z,37.23
2018-11-23T17:35:50.277Z,40.93
2018-11-23T17:38:19.482Z,35.83
2018-11-23T17:40:49.322Z,38.70
2018-11-23T17:43:18.526Z,40.30
2018-11-23T17:45:47.814Z,40.17
2018-11-23T17:48:17.780Z,38.67
2018-11-23T17:50:47.032Z,38.50
2018-11-23T17:53:16.621Z,37.53
2018-11-23T17:55:46.903Z,38.70
2018-11-23T17:58:16.100Z,41.63
2018-11-23T18:00:46.812Z,39.93
2018-11-23T18:03:16.016Z,40.80
2018-11-23T18:05:45.839Z,40.80
2018-11-23T18:08:15.026Z,39.07
2018-11-23T18:10:44.436Z,39.10
2018-11-23T18:13:14.198Z,42.57
2018-11-23T18:15:43.425Z,42.33
2018-11-23T18:25:01.983Z,49.60
2018-11-23T18:27:31.247Z,45.03
2018-11-23T18:30:00.993Z,45.43
2018-11-23T18:32:30.219Z,40.57
2018-11-23T18:34:59.418Z,40.13
2018-11-23T18:37:29.088Z,44.83
2018-11-23T18:39:58.650Z,40.60
2018-11-23T18:42:28.241Z,43.70
2018-11-23T18:44:57.443Z,42.87
2018-11-23T18:47:26.651Z,43.47
2018-11-23T18:49:57.960Z,41.47
2018-11-23T18:52:27.208Z,42.83
2018-11-23T18:54:56.939Z,42.20
2018-11-23T18:57:26.248Z,40.23
2018-11-23T18:59:55.540Z,44.73
2018-11-23T19:02:25.248Z,42.40
2018-11-23T19:04:54.416Z,43.63
2018-11-23T19:08:53.482Z,45.10
2018-11-23T19:11:22.662Z,38.67
2018-11-23T19:13:53.153Z,43.83
2018-11-23T19:16:22.390Z,40.80
2018-11-23T19:18:52.178Z,39.90
2018-11-23T19:21:21.418Z,41.87
2018-11-23T19:23:50.591Z,37.97
2018-11-23T19:26:20.318Z,40.87
2018-11-23T19:28:49.602Z,44.53
2018-11-23T19:31:19.422Z,41.77
2018-11-23T19:33:48.670Z,41.80
2018-11-23T19:36:17.928Z,40.37
2018-11-23T19:38:48.478Z,42.07
2018-11-23T19:41:17.643Z,42.17
2018-11-23T19:43:47.238Z,42.97
2018-11-23T19:46:17.842Z,42.57
2018-11-23T19:48:47.463Z,42.57
2018-11-23T19:51:17.332Z,42.93
2018-11-23T19:53:47.600Z,44.33
2018-11-23T19:56:16.773Z,41.77
2018-11-23T19:58:46.021Z,39.83
2018-11-23T20:01:17.292Z,42.67
2018-11-23T20:03:46.474Z,41.20
2018-11-23T20:06:15.710Z,41.37
2018-11-23T20:08:46.166Z,40.83
2018-11-23T20:11:15.858Z,45.40
2018-11-23T20:13:45.497Z,41.33
2018-11-23T20:16:14.852Z,41.50
2018-11-23T20:18:44.032Z,45.53
2018-11-23T20:21:13.191Z,44.83
2018-11-23T20:23:45.138Z,51.47
2018-11-23T20:26:14.281Z,40.10
2018-11-23T20:28:43.491Z,41.90
2018-11-23T20:31:12.734Z,43.63
2018-11-23T20:33:41.923Z,43.43
2018-11-23T20:36:12.102Z,43.17
2018-11-23T20:38:41.986Z,40.47
2018-11-23T20:41:11.200Z,38.63
2018-11-23T20:43:40.382Z,46.60
2018-11-23T20:46:10.544Z,35.57
2018-11-23T20:48:40.659Z,41.40
2018-11-23T20:51:10.277Z,42.47
2018-11-23T20:53:39.837Z,40.97
2018-11-23T20:56:09.039Z,40.70
2018-11-23T20:58:38.340Z,44.17
2018-11-23T21:01:08.434Z,41.10
2018-11-23T21:03:37.582Z,39.63
2018-11-23T21:06:06.887Z,40.30
2018-11-23T21:08:36.275Z,39.80
2018-11-23T21:11:05.851Z,39.10
2018-11-23T21:13:36.456Z,40.33
2018-11-23T21:16:05.907Z,44.93
2018-11-23T21:18:35.090Z,42.97
2018-11-23T21:21:04.285Z,43.27
2018-11-23T21:23:34.842Z,43.23
2018-11-23T21:26:05.352Z,42.27
2018-11-23T21:28:34.563Z,44.80
2018-11-23T21:31:03.792Z,39.87
2018-11-23T21:33:32.969Z,41.33
2018-11-23T21:36:02.143Z,42.13
2018-11-23T21:38:33.604Z,41.27
2018-11-23T21:41:02.858Z,41.90
2018-11-23T21:43:32.079Z,39.27
2018-11-23T21:46:01.271Z,37.87
2018-11-23T21:48:30.469Z,43.47
2018-11-23T21:51:00.406Z,44.27
2018-11-23T21:53:30.235Z,42.33
2018-11-23T21:56:00.965Z,39.43
2018-11-23T21:58:30.162Z,44.80
2018-11-23T22:01:00.159Z,40.83
2018-11-23T22:03:29.960Z,40.07
2018-11-23T22:05:59.116Z,40.80
2018-11-23T22:08:28.294Z,41.83
2018-11-23T22:10:57.459Z,42.03
2018-11-23T22:13:27.813Z,41.13
2018-11-23T22:15:58.486Z,41.90
2018-11-23T22:18:27.675Z,42.17
2018-11-23T22:20:56.851Z,41.47
2018-11-23T22:23:26.583Z,40.93
2018-11-23T22:25:56.357Z,40.37
2018-11-23T22:28:25.546Z,38.00
2018-11-23T22:30:54.756Z,39.90
2018-11-23T22:33:23.949Z,40.40
2018-11-23T22:35:54.317Z,40.73
2018-11-23T22:38:23.471Z,48.70
2018-11-23T22:40:52.722Z,41.40
2018-11-23T22:43:21.939Z,39.60
2018-11-23T22:45:51.143Z,42.07
2018-11-23T22:48:21.284Z,37.70
2018-11-23T22:50:50.454Z,36.30
2018-11-23T22:53:21.804Z,39.63
2018-11-23T22:55:50.973Z,41.20
2018-11-23T22:58:21.874Z,38.77
2018-11-23T23:00:56.395Z,44.80
2018-11-23T23:03:25.570Z,38.37
2018-11-23T23:05:54.850Z,41.00
2018-11-23T23:08:24.459Z,37.53
2018-11-23T23:10:54.559Z,40.57
2018-11-23T23:13:23.807Z,43.40
2018-11-23T23:15:53.026Z,39.43
2018-11-23T23:18:22.286Z,41.20
2018-11-23T23:20:51.482Z,40.07
2018-11-23T23:23:22.183Z,47.57
2018-11-23T23:25:51.368Z,40.50
2018-11-23T23:28:20.562Z,39.00
2018-11-23T23:30:49.755Z,41.17
2018-11-23T23:33:18.914Z,43.33
2018-11-23T23:35:49.080Z,41.20
2018-11-23T23:38:18.398Z,41.37
2018-11-23T23:40:47.594Z,43.10
2018-11-23T23:43:16.793Z,42.20
2018-11-23T23:45:46.034Z,42.57
2018-11-23T23:48:16.568Z,41.70
2018-11-23T23:50:45.766Z,40.80
2018-11-23T23:53:15.023Z,42.90
2018-11-23T23:55:44.218Z,41.93
2018-11-23T23:58:13.412Z,42.70
